Relevés horaires Les Attelas (Suisse)


Relevés horaires à Les Attelas - Mardi 19 Janv. 2016
Heure UTC1 Température [°C] Vent [km/h] Hum. [%] Pres.4 [hPa] Visi. [Km] Nébu. [octa] Préc.5 [mm] Cond.
2m. Res. Ros. Dir.2 Vit. Moy. Raf.3
23:00 -10.4 -15.5 -11.4 ONO 9.3 11.1 29.6 92 700(0.5/3h) -- -- -- --
22:00 -10.6 -15.7 -12.1 NO 9.3 9.3 20.4 89 700(0.4/3h) -- -- -- --
21:00 -10.5 -13.9 -12.8 SO 5.6 18.5 27.8 83 700(0.4/3h) -- -- -- --
20:00 -10.0 -17.6 -11.7 SO 18.5 18.5 27.8 87 700(0.3/3h) -- -- -- --
19:00 -10.3 -17.9 -12.7 SO 18.5 18.5 27.8 82 700(0.5/3h) -- -- -- --
18:00 -10.6 -14 -12.4 SO 5.6 13.0 22.2 87 700(0.6/3h) -- -- -- --
17:00 -10.8 -15.2 -11.5 SSO 7.4 11.1 14.8 95 700(0.7/3h) -- -- -- --
16:00 -10.8 -16.6 -11.0 SSO 11.1 11.1 18.5 98 700(0.2/3h) -- -- -- --
15:00 -10.3 -14.6 -10.4 SSO 7.4 13.0 22.2 99 700(-0.1/3h) -- -- -- --
14:00 -10.8 -15.2 -10.8 SSO 7.4 13.0 18.5 100 700(-0.3/3h) -- -- -- --
13:00 -10.5 -16.2 -10.5 SSO 11.1 13.0 22.2 100 700(0.1/3h) -- -- -- --
12:00 -10.4 -13.8 -10.5 S 5.6 20.4 33.3 99 700(0.6/3h) -- -- -- --
11:00 -10.6 -15.7 -10.6 OSO 9.3 9.3 16.7 100 700(0.9/3h) -- -- -- --
10:00 -10.6 -16.9 -10.6 SSO 13.0 14.8 20.4 100 700(1.1/3h) -- -- -- --
09:00 -10.8 -15.2 -10.8 SSO 7.4 20.4 33.3 100 700(1.2/3h) -- -- -- --
08:00 -10.8 -16.6 -10.8 SO 11.1 14.8 24.1 100 700(1.2/3h) -- -- -- --
07:00 -11.1 -17.6 -11.3 OSO 13.0 20.4 33.3 98 700(0.9/3h) -- -- -- --
06:00 -11.4 -18.9 -11.5 OSO 16.7 22.2 31.5 99 700(0.7/3h) -- -- -- --
05:00 -11.2 -17.1 -11.3 OSO 11.1 14.8 29.6 99 700(0.4/3h) -- -- -- --
04:00 -11.2 -19.1 -11.9 OSO 18.5 22.2 31.5 95 700(0.2/3h) -- -- -- --
03:00 -11.0 -18.4 -12.4 SO 16.7 16.7 31.5 89 700(-0.3/3h) -- -- -- --
02:00 -11.1 -16.3 -11.6 S 9.3 13.0 18.5 96 700(-0.4/3h) -- -- -- --
01:00 -11.3 -17.8 -12.8 SO 13.0 13.0 18.5 89 700(-0.3/3h) -- -- -- --
00:00 -11.7 -16.2 -13.2 S 7.4 18.5 22.2 89 700(0.0/3h) -- -- -- --

1 Coordinated Universal Time. Actuellement il est 01:00 locale et 23:00 UTC.

2 Le vent souffle depuis la direction indiquée vers la direction oposée.

3 Les rafales max. sont disponible 40 min après l'heure du relevé.

4 Pour les stations d'altitude (plus de 600m) le géopotentiel du niveau le plus proche de la pression obligatoire est indiqué.

5 Les stations disposant d'un diffuseur peuvent indiquer "trace". Cela signifie que des précipitations ont touchés le sol mais que la quantité est inférieure à 0.1 mm.

Copyright

Les données affichées sur cette page sont la propriété exclusive de Météo Suisse.

Récapitulatif de la journée
Température [°C] Vent [km/h] Ensoleillement4 [h] Precipitations totale5 [mm] Pression [Hpa]
Min1 Max.2 Moy.3 Max. Min Max.
-12.5 -10.0 15.4 33.3 1 h 0 min 0 700.0 700.0

1 Température minimale relevée entre 18:00 UTC la veille et 18:00 UTC le jour donné.

2 Température maximale relevée entre 06:00 UTC le jour donné et 06:00 UTC le lendemain.

3 Vent moyen de la journée basé sur les relevés horaires.

4 Ensoleillement en heures relevé entre 06:00 UTC la veille et 06:00 UTC le jour donné.

5 Précipitations totales tombées entre 06:00 UTC la jour donné et 06:00 UTC le lendemain.

Graphiques horaires